Time;durP1;ratioP1;P1;durP2;ratioP2;P2;SDS_P1;SDS_P2;PMS_P1;PMS_P2;Temp;Humidity;BMP_temperature;BMP_pressure;BME280_temperature;BME280_humidity;BME280_pressure;Samples;Min_cycle;Max_cycle;Signal;HPM_P1;HPM_P2
2024/01/16 00:00:31;;;;;;;;;;;;;;;;;;5018154;27;59800;-73
2024/01/16 00:02:56;;;;;;;;;;;;;;;;;;5018754;28;59720;-74
2024/01/16 00:05:21;;;;;;;;;;;;;;;;;;5017477;28;61077;-73
2024/01/16 00:07:46;;;;;;;;;;;;;;;;;;5019447;28;60140;-74
2024/01/16 00:10:11;;;;;;;;;;;;;;;;;;5017916;28;59595;-75
2024/01/16 00:12:36;;;;;;;;;;;;;;;;;;5019092;28;60693;-73
2024/01/16 00:15:01;;;;;;;;;;;;;;;;;;5018182;28;59859;-75
2024/01/16 00:17:26;;;;;;;;;;;;;;;;;;5018412;28;60534;-75
2024/01/16 00:19:51;;;;;;;;;;;;;;;;;;5017073;28;60312;-74
2024/01/16 00:22:16;;;;;;;;;;;;;;;;;;5020680;28;59298;-75
2024/01/16 00:24:42;;;;;;;;;;;;;;;;;;5017319;27;60904;-75
2024/01/16 00:27:07;;;;;;;;;;;;;;;;;;5022667;28;59777;-75
2024/01/16 00:29:32;;;;;;;;;;;;;;;;;;5020178;28;59616;-75
2024/01/16 00:31:57;;;;;;;;;;;;;;;;;;5020927;28;61532;-77
2024/01/16 00:34:22;;;;;;;;;;;;;;;;;;5020542;28;60120;-79
2024/01/16 00:36:47;;;;;;;;;;;;;;;;;;5022502;28;59261;-79
2024/01/16 00:39:13;;;;;;;;;;;;;;;;;;5019655;28;59181;-79
2024/01/16 00:41:38;;;;;;;;;;;;;;;;;;5020167;28;59147;-78
2024/01/16 00:44:03;;;;;;;;;;;;;;;;;;5021229;28;61021;-79
2024/01/16 00:46:29;;;;;;;;;;;;;;;;;;5019229;28;59170;-79
2024/01/16 00:48:54;;;;;;;;;;;;;;;;;;5020483;28;59540;-79
2024/01/16 00:51:19;;;;;;;;;;;;;;;;;;5020442;28;59378;-78
2024/01/16 00:53:44;;;;;;;;;;;;;;;;;;5017936;28;61375;-78
2024/01/16 00:56:09;;;;;;;;;;;;;;;;;;5017412;28;59434;-79
2024/01/16 00:58:34;;;;;;;;;;;;;;;;;;5022345;28;61361;-79
2024/01/16 01:00:59;;;;;;;;;;;;;;;;;;5017807;27;59538;-78
2024/01/16 01:03:25;;;;;;;;;;;;;;;;;;5022275;28;60489;-78
2024/01/16 01:05:50;;;;;;;;;;;;;;;;;;5017476;28;59886;-78
2024/01/16 01:08:15;;;;;;;;;;;;;;;;;;5020759;28;59454;-78
2024/01/16 01:10:40;;;;;;;;;;;;;;;;;;5020483;28;59566;-78
2024/01/16 01:13:05;;;;;;;;;;;;;;;;;;5019488;28;59846;-77
2024/01/16 01:15:30;;;;;;;;;;;;;;;;;;5021633;28;59558;-78
2024/01/16 01:17:55;;;;;;;;;;;;;;;;;;5019251;28;61085;-78
2024/01/16 01:20:21;;;;;;;;;;;;;;;;;;5019340;28;59608;-79
2024/01/16 01:22:46;;;;;;;;;;;;;;;;;;5018392;28;59609;-78
2024/01/16 01:25:11;;;;;;;;;;;;;;;;;;5019569;28;59837;-79
2024/01/16 01:27:36;;;;;;;;;;;;;;;;;;5018046;28;59517;-78
2024/01/16 01:30:01;;;;;;;;;;;;;;;;;;5018936;27;60252;-78
2024/01/16 01:32:26;;;;;;;;;;;;;;;;;;5016973;28;59807;-79
2024/01/16 01:34:52;;;;;;;;;;;;;;;;;;5019927;28;59637;-78
2024/01/16 01:37:17;;;;;;;;;;;;;;;;;;5018564;28;60394;-78
2024/01/16 01:39:42;;;;;;;;;;;;;;;;;;5016134;28;59719;-78
2024/01/16 01:42:07;;;;;;;;;;;;;;;;;;5020034;27;60447;-78
2024/01/16 01:44:32;;;;;;;;;;;;;;;;;;5018221;28;59815;-78
2024/01/16 01:46:57;;;;;;;;;;;;;;;;;;5018284;28;59361;-77
2024/01/16 01:49:22;;;;;;;;;;;;;;;;;;5018607;28;61145;-78
2024/01/16 01:51:47;;;;;;;;;;;;;;;;;;5014371;28;59854;-78
2024/01/16 01:54:12;;;;;;;;;;;;;;;;;;5018475;28;59374;-78
2024/01/16 01:56:37;;;;;;;;;;;;;;;;;;5021773;28;59680;-78
2024/01/16 01:59:02;;;;;;;;;;;;;;;;;;5022942;27;59642;-78
2024/01/16 02:01:28;;;;;;;;;;;;;;;;;;5024454;28;59610;-77
2024/01/16 02:03:53;;;;;;;;;;;;;;;;;;5021827;28;59169;-78
2024/01/16 02:06:18;;;;;;;;;;;;;;;;;;5023364;28;59162;-78
2024/01/16 02:08:43;;;;;;;;;;;;;;;;;;5023290;28;60495;-77
2024/01/16 02:11:08;;;;;;;;;;;;;;;;;;5023374;27;59530;-77
2024/01/16 02:13:33;;;;;;;;;;;;;;;;;;5024018;28;59660;-77
2024/01/16 02:15:58;;;;;;;;;;;;;;;;;;5023857;27;61147;-77
2024/01/16 02:18:23;;;;;;;;;;;;;;;;;;5022620;27;59196;-77
2024/01/16 02:20:49;;;;;;;;;;;;;;;;;;5023194;27;59199;-77
2024/01/16 02:23:14;;;;;;;;;;;;;;;;;;5024025;27;60560;-77
2024/01/16 02:25:39;;;;;;;;;;;;;;;;;;5024097;28;59349;-77
2024/01/16 02:28:04;;;;;;;;;;;;;;;;;;5023614;27;59604;-77
2024/01/16 02:30:29;;;;;;;;;;;;;;;;;;5022015;28;60277;-77
2024/01/16 02:32:55;;;;;;;;;;;;;;;;;;5022592;28;59237;-77
2024/01/16 02:35:20;;;;;;;;;;;;;;;;;;5025191;28;59446;-78
2024/01/16 02:37:45;;;;;;;;;;;;;;;;;;5022765;28;60875;-77
2024/01/16 02:40:10;;;;;;;;;;;;;;;;;;5024319;27;59692;-78
2024/01/16 02:42:37;;;;;;;;;;;;;;;;;;5023360;28;60256;-77
2024/01/16 02:45:03;;;;;;;;;;;;;;;;;;5021329;28;59368;-77
2024/01/16 02:47:28;;;;;;;;;;;;;;;;;;5022039;28;60264;-78
2024/01/16 02:49:53;;;;;;;;;;;;;;;;;;5022085;27;59539;-79
2024/01/16 02:52:18;;;;;;;;;;;;;;;;;;5023504;28;59621;-77
2024/01/16 02:54:44;;;;;;;;;;;;;;;;;;5020931;28;60450;-75
2024/01/16 02:57:09;;;;;;;;;;;;;;;;;;5021498;28;59693;-76
2024/01/16 02:59:34;;;;;;;;;;;;;;;;;;5021742;28;59745;-76
2024/01/16 03:01:59;;;;;;;;;;;;;;;;;;5022990;28;59466;-74
2024/01/16 03:04:24;;;;;;;;;;;;;;;;;;5021169;28;60010;-76
2024/01/16 03:06:49;;;;;;;;;;;;;;;;;;5025065;28;59371;-75
2024/01/16 03:09:14;;;;;;;;;;;;;;;;;;5021862;27;59688;-74
2024/01/16 03:11:40;;;;;;;;;;;;;;;;;;5023223;28;59404;-74
2024/01/16 03:14:05;;;;;;;;;;;;;;;;;;5022058;28;59664;-74
2024/01/16 03:16:30;;;;;;;;;;;;;;;;;;5020883;28;59350;-74
2024/01/16 03:18:55;;;;;;;;;;;;;;;;;;5022640;28;59609;-75
2024/01/16 03:21:20;;;;;;;;;;;;;;;;;;5023758;28;60084;-73
2024/01/16 03:23:45;;;;;;;;;;;;;;;;;;5021430;27;60091;-74
2024/01/16 03:26:10;;;;;;;;;;;;;;;;;;5023325;28;59648;-73
2024/01/16 03:28:35;;;;;;;;;;;;;;;;;;5021248;28;60225;-75
2024/01/16 03:31:00;;;;;;;;;;;;;;;;;;5021761;28;59883;-73
2024/01/16 03:33:25;;;;;;;;;;;;;;;;;;5022206;28;60235;-74
2024/01/16 03:35:50;;;;;;;;;;;;;;;;;;5022309;28;59589;-74
2024/01/16 03:38:15;;;;;;;;;;;;;;;;;;5022106;28;59556;-75
2024/01/16 03:40:40;;;;;;;;;;;;;;;;;;5023565;28;59744;-74
2024/01/16 03:43:06;;;;;;;;;;;;;;;;;;5020861;28;59310;-74
2024/01/16 03:45:31;;;;;;;;;;;;;;;;;;5021300;28;59489;-74
2024/01/16 03:47:56;;;;;;;;;;;;;;;;;;5022616;28;60156;-75
2024/01/16 03:50:21;;;;;;;;;;;;;;;;;;5022753;28;59649;-74
2024/01/16 03:52:46;;;;;;;;;;;;;;;;;;5023469;28;61824;-77
2024/01/16 03:55:11;;;;;;;;;;;;;;;;;;5020764;28;59564;-77
2024/01/16 03:57:36;;;;;;;;;;;;;;;;;;5021730;28;59098;-77
2024/01/16 04:00:02;;;;;;;;;;;;;;;;;;5021464;28;59731;-77
2024/01/16 04:02:27;;;;;;;;;;;;;;;;;;5020621;28;60376;-74
2024/01/16 04:04:52;;;;;;;;;;;;;;;;;;5021872;28;59609;-74
2024/01/16 04:07:17;;;;;;;;;;;;;;;;;;5021866;28;60863;-74
2024/01/16 04:09:42;;;;;;;;;;;;;;;;;;5020887;28;59376;-74
2024/01/16 04:12:08;;;;;;;;;;;;;;;;;;5021042;28;61117;-74
2024/01/16 04:14:33;;;;;;;;;;;;;;;;;;5020125;28;59445;-74
2024/01/16 04:16:58;;;;;;;;;;;;;;;;;;5020020;28;58789;-74
2024/01/16 04:19:23;;;;;;;;;;;;;;;;;;5023198;28;60068;-74
2024/01/16 04:21:50;;;;;;;;;;;;;;;;;;5018108;27;80505;-74
2024/01/16 04:24:15;;;;;;;;;;;;;;;;;;5021694;28;59530;-74
2024/01/16 04:26:40;;;;;;;;;;;;;;;;;;5020770;28;61484;-73
2024/01/16 04:29:06;;;;;;;;;;;;;;;;;;5021307;28;59917;-74
2024/01/16 04:31:31;;;;;;;;;;;;;;;;;;5022572;28;59761;-75
2024/01/16 04:33:56;;;;;;;;;;;;;;;;;;5021454;28;59653;-75
2024/01/16 04:36:21;;;;;;;;;;;;;;;;;;5020380;28;59682;-72
2024/01/16 04:38:46;;;;;;;;;;;;;;;;;;5021442;28;60309;-74
2024/01/16 04:41:11;;;;;;;;;;;;;;;;;;5020677;28;59958;-74
2024/01/16 04:43:36;;;;;;;;;;;;;;;;;;5020419;28;59628;-75
2024/01/16 04:46:01;;;;;;;;;;;;;;;;;;5020919;28;60110;-75
2024/01/16 04:48:26;;;;;;;;;;;;;;;;;;5017382;27;60074;-74
2024/01/16 04:50:51;;;;;;;;;;;;;;;;;;5019701;28;59721;-75
2024/01/16 04:53:17;;;;;;;;;;;;;;;;;;5019780;28;59499;-74
2024/01/16 04:55:42;;;;;;;;;;;;;;;;;;5020967;28;59245;-74
2024/01/16 04:58:07;;;;;;;;;;;;;;;;;;5020871;27;60253;-74
2024/01/16 05:00:32;;;;;;;;;;;;;;;;;;5019371;28;59794;-74
2024/01/16 05:02:57;;;;;;;;;;;;;;;;;;5019809;28;58701;-78
2024/01/16 05:05:22;;;;;;;;;;;;;;;;;;5020611;27;59364;-78
2024/01/16 05:07:47;;;;;;;;;;;;;;;;;;5019999;28;59059;-78
2024/01/16 05:10:12;;;;;;;;;;;;;;;;;;5018929;28;59209;-78
2024/01/16 05:12:37;;;;;;;;;;;;;;;;;;5018892;28;61247;-73
2024/01/16 05:15:03;;;;;;;;;;;;;;;;;;5023164;28;59435;-75
2024/01/16 05:17:28;;;;;;;;;;;;;;;;;;5020558;28;60507;-75
2024/01/16 05:19:53;;;;;;;;;;;;;;;;;;5016272;28;59606;-74
2024/01/16 05:22:18;;;;;;;;;;;;;;;;;;5019527;28;59965;-74
2024/01/16 05:24:43;;;;;;;;;;;;;;;;;;5022409;28;60323;-74
2024/01/16 05:27:09;;;;;;;;;;;;;;;;;;5025244;28;59289;-74
2024/01/16 05:29:34;;;;;;;;;;;;;;;;;;5021267;27;59835;-74
2024/01/16 05:31:59;;;;;;;;;;;;;;;;;;5021400;28;60801;-74
2024/01/16 05:34:24;;;;;;;;;;;;;;;;;;5020508;28;59407;-76
2024/01/16 05:36:49;;;;;;;;;;;;;;;;;;5024777;28;59490;-74
2024/01/16 05:39:14;;;;;;;;;;;;;;;;;;5020625;28;60619;-74
2024/01/16 05:41:39;;;;;;;;;;;;;;;;;;5023283;27;60519;-73
2024/01/16 05:44:04;;;;;;;;;;;;;;;;;;5021580;28;59718;-74
2024/01/16 05:46:30;;;;;;;;;;;;;;;;;;5022661;28;60024;-74
2024/01/16 05:48:55;;;;;;;;;;;;;;;;;;5023654;28;59246;-73
2024/01/16 05:51:20;;;;;;;;;;;;;;;;;;5022817;28;60288;-74
2024/01/16 05:53:45;;;;;;;;;;;;;;;;;;5021335;28;59965;-74
2024/01/16 05:56:11;;;;;;;;;;;;;;;;;;5019185;28;59762;-74
2024/01/16 05:58:38;;;;;;;;;;;;;;;;;;5022442;28;59782;-74
2024/01/16 06:01:03;;;;;;;;;;;;;;;;;;5021648;28;59406;-75
2024/01/16 06:03:29;;;;;;;;;;;;;;;;;;5022366;27;61478;-74
2024/01/16 06:05:54;;;;;;;;;;;;;;;;;;5021306;28;59703;-74
2024/01/16 06:08:20;;;;;;;;;;;;;;;;;;5023771;28;59276;-74
2024/01/16 06:10:45;;;;;;;;;;;;;;;;;;5024619;28;60926;-77
2024/01/16 06:13:10;;;;;;;;;;;;;;;;;;5023620;28;59591;-77
2024/01/16 06:15:35;;;;;;;;;;;;;;;;;;5023589;28;59602;-77
2024/01/16 06:18:00;;;;;;;;;;;;;;;;;;5024493;28;60308;-76
2024/01/16 06:20:25;;;;;;;;;;;;;;;;;;5022410;28;59431;-77
2024/01/16 06:22:50;;;;;;;;;;;;;;;;;;5024776;28;61370;-77
2024/01/16 06:25:15;;;;;;;;;;;;;;;;;;5022571;28;59323;-77
2024/01/16 06:27:41;;;;;;;;;;;;;;;;;;5023546;28;59245;-77
2024/01/16 06:30:08;;;;;;;;;;;;;;;;;;5021959;28;62054;-76
2024/01/16 06:32:33;;;;;;;;;;;;;;;;;;5022466;28;59091;-77
2024/01/16 06:34:58;;;;;;;;;;;;;;;;;;5021985;28;59684;-78
2024/01/16 06:37:23;;;;;;;;;;;;;;;;;;5024758;28;61373;-77
2024/01/16 06:39:48;;;;;;;;;;;;;;;;;;5023633;28;60011;-77
2024/01/16 06:42:13;;;;;;;;;;;;;;;;;;5023218;28;60253;-78
2024/01/16 06:44:38;;;;;;;;;;;;;;;;;;5020992;28;59419;-77
2024/01/16 06:47:03;;;;;;;;;;;;;;;;;;5023834;28;59240;-77
2024/01/16 06:49:28;;;;;;;;;;;;;;;;;;5023912;28;60511;-77
2024/01/16 06:51:54;;;;;;;;;;;;;;;;;;5022199;28;59567;-77
2024/01/16 06:54:20;;;;;;;;;;;;;;;;;;5021473;28;59464;-76
2024/01/16 06:56:46;;;;;;;;;;;;;;;;;;5023568;27;61062;-77
2024/01/16 06:59:11;;;;;;;;;;;;;;;;;;5021978;28;59249;-78
2024/01/16 07:01:36;;;;;;;;;;;;;;;;;;5023196;28;59462;-78
2024/01/16 07:04:01;;;;;;;;;;;;;;;;;;5022241;28;59331;-78
2024/01/16 07:06:26;;;;;;;;;;;;;;;;;;5023309;27;59206;-77
2024/01/16 07:08:51;;;;;;;;;;;;;;;;;;5022246;28;61103;-78
2024/01/16 07:11:17;;;;;;;;;;;;;;;;;;5023065;27;59173;-77
2024/01/16 07:13:42;;;;;;;;;;;;;;;;;;5023032;28;59605;-77
2024/01/16 07:16:07;;;;;;;;;;;;;;;;;;5023553;28;59521;-77
2024/01/16 07:18:33;;;;;;;;;;;;;;;;;;5022519;28;59440;-77
2024/01/16 07:20:58;;;;;;;;;;;;;;;;;;5021740;28;59339;-79
2024/01/16 07:23:23;;;;;;;;;;;;;;;;;;5022169;28;61058;-79
2024/01/16 07:25:48;;;;;;;;;;;;;;;;;;5023539;28;59738;-77
2024/01/16 07:28:14;;;;;;;;;;;;;;;;;;5021095;28;59389;-77
2024/01/16 07:30:39;;;;;;;;;;;;;;;;;;5021704;27;63994;-74
2024/01/16 07:33:05;;;;;;;;;;;;;;;;;;5023277;28;76976;-73
2024/01/16 07:35:30;;;;;;;;;;;;;;;;;;5022640;28;61266;-75
2024/01/16 07:37:55;;;;;;;;;;;;;;;;;;5020881;28;59243;-75
2024/01/16 07:40:20;;;;;;;;;;;;;;;;;;5024451;28;59335;-74
2024/01/16 07:42:45;;;;;;;;;;;;;;;;;;5021482;28;60211;-73
2024/01/16 07:45:11;;;;;;;;;;;;;;;;;;5022499;28;59785;-75
2024/01/16 07:47:36;;;;;;;;;;;;;;;;;;5022670;28;60204;-74
2024/01/16 07:50:01;;;;;;;;;;;;;;;;;;5021171;28;59355;-74
2024/01/16 07:52:26;;;;;;;;;;;;;;;;;;5023459;28;60162;-74
2024/01/16 07:54:51;;;;;;;;;;;;;;;;;;5020871;28;60576;-75
2024/01/16 07:57:16;;;;;;;;;;;;;;;;;;5022189;28;60936;-74
2024/01/16 07:59:41;;;;;;;;;;;;;;;;;;5021752;28;59809;-75
2024/01/16 08:02:06;;;;;;;;;;;;;;;;;;5021263;27;60124;-75
2024/01/16 08:04:32;;;;;;;;;;;;;;;;;;5021905;28;59499;-77
2024/01/16 08:06:57;;;;;;;;;;;;;;;;;;5022215;28;60322;-75
2024/01/16 08:09:22;;;;;;;;;;;;;;;;;;5022124;28;59262;-75
2024/01/16 08:11:47;;;;;;;;;;;;;;;;;;5021030;28;58923;-74
2024/01/16 08:14:12;;;;;;;;;;;;;;;;;;5022250;27;61141;-75
2024/01/16 08:16:37;;;;;;;;;;;;;;;;;;5022422;28;59658;-75
2024/01/16 08:19:03;;;;;;;;;;;;;;;;;;5021780;28;59626;-74
2024/01/16 08:21:28;;;;;;;;;;;;;;;;;;5021721;27;60449;-75
2024/01/16 08:23:53;;;;;;;;;;;;;;;;;;5021180;28;60791;-75
2024/01/16 08:26:18;;;;;;;;;;;;;;;;;;5023079;28;59389;-74
2024/01/16 08:28:43;;;;;;;;;;;;;;;;;;5022415;28;59555;-76
2024/01/16 08:31:08;;;;;;;;;;;;;;;;;;5022764;27;59899;-75
2024/01/16 08:33:34;;;;;;;;;;;;;;;;;;5021811;28;60433;-75
2024/01/16 08:35:59;;;;;;;;;;;;;;;;;;5021761;28;59232;-74
2024/01/16 08:38:24;;;;;;;;;;;;;;;;;;5022373;28;59216;-76
2024/01/16 08:40:49;;;;;;;;;;;;;;;;;;5022864;28;59458;-74
2024/01/16 08:43:14;;;;;;;;;;;;;;;;;;5021029;28;59460;-75
2024/01/16 08:45:39;;;;;;;;;;;;;;;;;;5021438;28;59761;-75
2024/01/16 08:48:04;;;;;;;;;;;;;;;;;;5023688;27;61446;-74
2024/01/16 08:50:30;;;;;;;;;;;;;;;;;;5025259;28;59830;-76
2024/01/16 08:52:55;;;;;;;;;;;;;;;;;;5023593;28;60493;-74
2024/01/16 08:55:20;;;;;;;;;;;;;;;;;;5025162;28;59331;-74
2024/01/16 08:57:45;;;;;;;;;;;;;;;;;;5023813;28;59110;-75
2024/01/16 09:00:10;;;;;;;;;;;;;;;;;;5024996;28;60100;-75
2024/01/16 09:02:35;;;;;;;;;;;;;;;;;;5023069;28;59452;-73
2024/01/16 09:05:00;;;;;;;;;;;;;;;;;;5025280;28;59501;-76
2024/01/16 09:07:25;;;;;;;;;;;;;;;;;;5024576;28;59917;-76
2024/01/16 09:09:50;;;;;;;;;;;;;;;;;;5024800;28;60364;-75
2024/01/16 09:12:16;;;;;;;;;;;;;;;;;;5024247;28;60449;-74
2024/01/16 09:14:41;;;;;;;;;;;;;;;;;;5023037;28;59155;-74
2024/01/16 09:17:06;;;;;;;;;;;;;;;;;;5024937;28;59545;-75
2024/01/16 09:19:31;;;;;;;;;;;;;;;;;;5024295;28;59553;-74
2024/01/16 09:21:56;;;;;;;;;;;;;;;;;;5023019;27;60408;-75
2024/01/16 09:24:21;;;;;;;;;;;;;;;;;;5024997;27;59141;-74
2024/01/16 09:26:46;;;;;;;;;;;;;;;;;;5023370;28;60535;-76
2024/01/16 09:29:11;;;;;;;;;;;;;;;;;;5023608;27;79286;-75
2024/01/16 09:31:37;;;;;;;;;;;;;;;;;;5024774;28;60842;-76
2024/01/16 09:34:02;;;;;;;;;;;;;;;;;;5022974;28;59739;-75
2024/01/16 09:36:27;;;;;;;;;;;;;;;;;;5025070;27;59197;-74
2024/01/16 09:38:52;;;;;;;;;;;;;;;;;;5023666;27;59474;-76
2024/01/16 09:41:17;;;;;;;;;;;;;;;;;;5022002;28;59560;-76
2024/01/16 09:43:42;;;;;;;;;;;;;;;;;;5025024;28;59492;-78
2024/01/16 09:46:07;;;;;;;;;;;;;;;;;;5024640;28;60286;-78
2024/01/16 09:48:32;;;;;;;;;;;;;;;;;;5022204;28;59853;-77
2024/01/16 09:50:57;;;;;;;;;;;;;;;;;;5025731;28;59790;-78
2024/01/16 09:53:23;;;;;;;;;;;;;;;;;;5023753;28;59557;-77
2024/01/16 09:55:48;;;;;;;;;;;;;;;;;;5024052;28;59834;-78
2024/01/16 09:58:14;;;;;;;;;;;;;;;;;;5023317;28;60782;-77
2024/01/16 10:00:40;;;;;;;;;;;;;;;;;;5022018;28;60485;-78
2024/01/16 10:03:05;;;;;;;;;;;;;;;;;;5023267;28;59583;-77
2024/01/16 10:05:30;;;;;;;;;;;;;;;;;;5024210;28;59655;-77
2024/01/16 10:07:56;;;;;;;;;;;;;;;;;;5021663;28;60296;-77
2024/01/16 10:10:22;;;;;;;;;;;;;;;;;;5024373;28;59623;-77
2024/01/16 10:12:47;;;;;;;;;;;;;;;;;;5023246;28;61039;-76
2024/01/16 10:15:12;;;;;;;;;;;;;;;;;;5022117;28;59224;-76
2024/01/16 10:17:37;;;;;;;;;;;;;;;;;;5022258;27;60015;-78
2024/01/16 10:20:04;;;;;;;;;;;;;;;;;;5022227;28;60160;-77
2024/01/16 10:22:29;;;;;;;;;;;;;;;;;;5024558;28;59817;-78
2024/01/16 10:24:55;;;;;;;;;;;;;;;;;;5022783;28;59274;-78
2024/01/16 10:27:20;;;;;;;;;;;;;;;;;;5023678;28;59328;-77
2024/01/16 10:29:45;;;;;;;;;;;;;;;;;;5023091;28;59593;-77
2024/01/16 10:32:10;;;;;;;;;;;;;;;;;;5023036;28;62016;-77
2024/01/16 10:34:35;;;;;;;;;;;;;;;;;;5023407;28;59401;-77
2024/01/16 10:37:01;;;;;;;;;;;;;;;;;;5024140;28;59506;-77
2024/01/16 10:39:26;;;;;;;;;;;;;;;;;;5022632;28;59864;-77
2024/01/16 10:41:51;;;;;;;;;;;;;;;;;;5023596;28;59972;-77
2024/01/16 10:44:16;;;;;;;;;;;;;;;;;;5021501;28;60144;-77
2024/01/16 10:46:41;;;;;;;;;;;;;;;;;;5022771;28;59719;-77
2024/01/16 10:49:06;;;;;;;;;;;;;;;;;;5022931;28;59774;-77
2024/01/16 10:51:31;;;;;;;;;;;;;;;;;;5023889;28;59878;-74
2024/01/16 10:53:56;;;;;;;;;;;;;;;;;;5019830;28;59563;-75
2024/01/16 10:56:22;;;;;;;;;;;;;;;;;;5055909;27;59715;-74
2024/01/16 10:58:47;;;;;;;;;;;;;;;;;;5022684;28;59516;-75
2024/01/16 11:01:12;;;;;;;;;;;;;;;;;;5021702;27;59574;-75
2024/01/16 11:03:37;;;;;;;;;;;;;;;;;;5022892;27;60473;-76
2024/01/16 11:06:03;;;;;;;;;;;;;;;;;;5022624;28;59658;-74
2024/01/16 11:08:30;;;;;;;;;;;;;;;;;;5022113;28;59312;-75
2024/01/16 11:10:56;;;;;;;;;;;;;;;;;;5021043;28;60235;-76
2024/01/16 11:13:21;;;;;;;;;;;;;;;;;;5020268;28;59668;-75
2024/01/16 11:15:46;;;;;;;;;;;;;;;;;;5022367;28;58497;-76
2024/01/16 11:18:11;;;;;;;;;;;;;;;;;;5023900;28;59762;-76
2024/01/16 11:20:36;;;;;;;;;;;;;;;;;;5020613;28;59311;-75
2024/01/16 11:23:01;;;;;;;;;;;;;;;;;;5022687;27;61178;-75
2024/01/16 11:25:26;;;;;;;;;;;;;;;;;;5022042;28;59857;-75
2024/01/16 11:27:52;;;;;;;;;;;;;;;;;;5021569;28;59562;-75
2024/01/16 11:30:17;;;;;;;;;;;;;;;;;;5022343;28;60706;-75
2024/01/16 11:32:42;;;;;;;;;;;;;;;;;;5021769;28;59635;-75
2024/01/16 11:35:07;;;;;;;;;;;;;;;;;;5022065;28;60572;-74
2024/01/16 11:37:33;;;;;;;;;;;;;;;;;;5023417;28;59590;-76
2024/01/16 11:39:58;;;;;;;;;;;;;;;;;;5021492;28;59594;-76
2024/01/16 11:42:23;;;;;;;;;;;;;;;;;;5021297;28;60747;-76
2024/01/16 11:44:50;;;;;;;;;;;;;;;;;;5022024;28;60122;-77
2024/01/16 11:47:16;;;;;;;;;;;;;;;;;;5021984;28;59377;-76
2024/01/16 11:49:41;;;;;;;;;;;;;;;;;;5023044;28;60323;-75
2024/01/16 11:52:06;;;;;;;;;;;;;;;;;;5020690;27;59298;-75
2024/01/16 11:54:31;;;;;;;;;;;;;;;;;;5022133;28;59561;-75
2024/01/16 11:56:56;;;;;;;;;;;;;;;;;;5021903;28;61199;-75
2024/01/16 11:59:22;;;;;;;;;;;;;;;;;;5022741;28;59326;-75
2024/01/16 12:01:47;;;;;;;;;;;;;;;;;;5021118;28;60365;-77
2024/01/16 12:04:12;;;;;;;;;;;;;;;;;;5019202;28;59631;-78
2024/01/16 12:06:37;;;;;;;;;;;;;;;;;;5018689;28;59691;-77
2024/01/16 12:09:02;;;;;;;;;;;;;;;;;;5019413;28;60191;-78
2024/01/16 12:11:27;;;;;;;;;;;;;;;;;;5014374;28;59650;-77
2024/01/16 12:13:53;;;;;;;;;;;;;;;;;;5017758;27;60608;-78
2024/01/16 12:16:18;;;;;;;;;;;;;;;;;;5021453;28;59623;-74
2024/01/16 12:18:43;;;;;;;;;;;;;;;;;;5020790;28;60385;-75
2024/01/16 12:21:09;;;;;;;;;;;;;;;;;;5021966;28;59247;-75
2024/01/16 12:23:34;;;;;;;;;;;;;;;;;;5019937;28;59557;-75
2024/01/16 12:26:03;;;;;;;;;;;;;;;;;;5021558;28;59652;-75
2024/01/16 12:28:28;;;;;;;;;;;;;;;;;;5020903;28;60710;-76
2024/01/16 12:30:53;;;;;;;;;;;;;;;;;;5017428;28;59357;-75
2024/01/16 12:33:18;;;;;;;;;;;;;;;;;;5021250;28;59603;-74
2024/01/16 12:35:47;;;;;;;;;;;;;;;;;;5017708;28;62683;-75
2024/01/16 12:38:12;;;;;;;;;;;;;;;;;;5020965;28;59560;-74
2024/01/16 12:40:38;;;;;;;;;;;;;;;;;;5019239;28;59299;-75
2024/01/16 12:43:04;;;;;;;;;;;;;;;;;;5020452;28;60427;-75
2024/01/16 12:45:29;;;;;;;;;;;;;;;;;;5021005;28;59666;-75
2024/01/16 12:47:57;;;;;;;;;;;;;;;;;;5019654;28;60699;-74
2024/01/16 12:50:22;;;;;;;;;;;;;;;;;;5020208;28;59380;-75
2024/01/16 12:52:47;;;;;;;;;;;;;;;;;;5021093;28;59751;-77
2024/01/16 12:55:13;;;;;;;;;;;;;;;;;;5021196;28;60773;-77
2024/01/16 12:57:38;;;;;;;;;;;;;;;;;;5017330;28;59273;-77
2024/01/16 13:00:04;;;;;;;;;;;;;;;;;;5016541;28;59347;-75
2024/01/16 13:02:30;;;;;;;;;;;;;;;;;;5018140;28;60216;-75
2024/01/16 13:04:55;;;;;;;;;;;;;;;;;;5019680;28;59543;-74
2024/01/16 13:07:21;;;;;;;;;;;;;;;;;;5019927;28;60247;-75
2024/01/16 13:09:47;;;;;;;;;;;;;;;;;;5019911;28;60095;-74
2024/01/16 13:12:12;;;;;;;;;;;;;;;;;;5019349;28;59459;-75
2024/01/16 13:14:37;;;;;;;;;;;;;;;;;;5020363;28;59593;-75
2024/01/16 13:17:02;;;;;;;;;;;;;;;;;;5020270;28;59600;-76
2024/01/16 13:19:33;;;;;;;;;;;;;;;;;;5021699;28;59867;-75
2024/01/16 13:21:58;;;;;;;;;;;;;;;;;;5018378;28;60988;-77
2024/01/16 13:24:23;;;;;;;;;;;;;;;;;;5020210;28;59736;-76
2024/01/16 13:26:48;;;;;;;;;;;;;;;;;;5018441;28;59356;-77
2024/01/16 13:29:13;;;;;;;;;;;;;;;;;;5019602;28;59650;-77
2024/01/16 13:31:38;;;;;;;;;;;;;;;;;;5019952;28;59645;-77
2024/01/16 13:34:04;;;;;;;;;;;;;;;;;;5023155;28;60377;-78
2024/01/16 13:36:29;;;;;;;;;;;;;;;;;;5022979;28;60700;-78
2024/01/16 13:38:54;;;;;;;;;;;;;;;;;;5024195;27;59565;-77
2024/01/16 13:41:19;;;;;;;;;;;;;;;;;;5022520;28;59667;-77
2024/01/16 13:43:44;;;;;;;;;;;;;;;;;;5023772;28;59489;-77
2024/01/16 13:46:10;;;;;;;;;;;;;;;;;;5024225;27;59553;-78
2024/01/16 13:48:35;;;;;;;;;;;;;;;;;;5024509;28;59354;-76
2024/01/16 13:51:00;;;;;;;;;;;;;;;;;;5022102;28;59152;-78
2024/01/16 13:53:25;;;;;;;;;;;;;;;;;;5022620;28;60156;-77
2024/01/16 13:55:50;;;;;;;;;;;;;;;;;;5020194;27;60961;-77
2024/01/16 13:58:15;;;;;;;;;;;;;;;;;;5024566;28;59589;-78
2024/01/16 14:00:40;;;;;;;;;;;;;;;;;;5017018;28;60601;-82
2024/01/16 14:03:06;;;;;;;;;;;;;;;;;;5023900;28;59572;-83
2024/01/16 14:05:31;;;;;;;;;;;;;;;;;;5024017;28;59454;-81
2024/01/16 14:07:56;;;;;;;;;;;;;;;;;;5022738;28;60228;-83
2024/01/16 14:10:21;;;;;;;;;;;;;;;;;;5022998;28;59632;-81
2024/01/16 14:12:46;;;;;;;;;;;;;;;;;;5022399;28;60501;-85
2024/01/16 14:15:22;;;;;;;;;;;;;;;;;;5021984;28;60029;-81
2024/01/16 14:17:47;;;;;;;;;;;;;;;;;;5021949;27;59596;-80
2024/01/16 14:20:12;;;;;;;;;;;;;;;;;;5020017;28;60896;-80
2024/01/16 14:22:38;;;;;;;;;;;;;;;;;;5023034;28;59337;-82
2024/01/16 14:25:04;;;;;;;;;;;;;;;;;;5023009;28;59585;-81
2024/01/16 14:27:29;;;;;;;;;;;;;;;;;;5022514;28;60223;-81
2024/01/16 14:29:54;;;;;;;;;;;;;;;;;;5020257;28;59484;-80
2024/01/16 14:32:19;;;;;;;;;;;;;;;;;;5020922;28;61102;-79
2024/01/16 14:34:44;;;;;;;;;;;;;;;;;;5020121;28;59509;-78
2024/01/16 14:37:11;;;;;;;;;;;;;;;;;;5018292;27;59741;-77
2024/01/16 14:39:36;;;;;;;;;;;;;;;;;;5010214;28;60607;-77
2024/01/16 14:42:02;;;;;;;;;;;;;;;;;;5017326;28;59194;-77
2024/01/16 14:44:27;;;;;;;;;;;;;;;;;;5018964;28;59517;-79
2024/01/16 14:46:53;;;;;;;;;;;;;;;;;;5018915;28;60146;-76
2024/01/16 14:49:19;;;;;;;;;;;;;;;;;;5017988;28;59962;-79
2024/01/16 14:51:44;;;;;;;;;;;;;;;;;;5021433;27;59560;-76
2024/01/16 14:54:09;;;;;;;;;;;;;;;;;;5019179;28;59338;-77
2024/01/16 14:56:34;;;;;;;;;;;;;;;;;;5023179;28;59539;-76
2024/01/16 14:58:59;;;;;;;;;;;;;;;;;;5021289;28;59651;-77
2024/01/16 15:01:24;;;;;;;;;;;;;;;;;;5022755;28;58603;-77
2024/01/16 15:03:49;;;;;;;;;;;;;;;;;;5019702;28;59363;-77
2024/01/16 15:06:15;;;;;;;;;;;;;;;;;;5021693;28;60223;-77
2024/01/16 15:08:40;;;;;;;;;;;;;;;;;;5021782;28;59517;-77
2024/01/16 15:11:05;;;;;;;;;;;;;;;;;;5022798;28;59569;-77
2024/01/16 15:13:30;;;;;;;;;;;;;;;;;;5022020;28;60277;-77
2024/01/16 15:15:56;;;;;;;;;;;;;;;;;;5020789;28;59261;-78
2024/01/16 15:18:21;;;;;;;;;;;;;;;;;;5020923;28;60176;-78
2024/01/16 15:20:46;;;;;;;;;;;;;;;;;;5020996;28;59407;-77
2024/01/16 15:23:11;;;;;;;;;;;;;;;;;;5020452;28;59099;-79
2024/01/16 15:25:37;;;;;;;;;;;;;;;;;;5024050;28;60875;-77
2024/01/16 15:28:03;;;;;;;;;;;;;;;;;;5020576;28;59563;-77
2024/01/16 15:30:32;;;;;;;;;;;;;;;;;;5022070;28;59332;-78
2024/01/16 15:32:57;;;;;;;;;;;;;;;;;;5022280;28;60411;-78
2024/01/16 15:35:22;;;;;;;;;;;;;;;;;;5021967;28;59731;-78
2024/01/16 15:37:47;;;;;;;;;;;;;;;;;;5020505;28;60233;-78
2024/01/16 15:40:14;;;;;;;;;;;;;;;;;;5024288;28;60166;-79
2024/01/16 15:42:39;;;;;;;;;;;;;;;;;;5021549;28;59333;-78
2024/01/16 15:45:06;;;;;;;;;;;;;;;;;;5021693;28;60432;-77
2024/01/16 15:47:31;;;;;;;;;;;;;;;;;;5021165;28;59216;-77
2024/01/16 15:49:56;;;;;;;;;;;;;;;;;;5020612;28;59289;-78
2024/01/16 15:52:21;;;;;;;;;;;;;;;;;;5022057;28;60684;-79
2024/01/16 15:54:46;;;;;;;;;;;;;;;;;;5018779;28;59440;-78
2024/01/16 15:57:11;;;;;;;;;;;;;;;;;;5021141;28;60657;-78
2024/01/16 15:59:37;;;;;;;;;;;;;;;;;;5021147;28;59437;-77
2024/01/16 16:02:02;;;;;;;;;;;;;;;;;;5020817;28;59323;-77
2024/01/16 16:04:28;;;;;;;;;;;;;;;;;;5022829;28;59593;-78
2024/01/16 16:06:53;;;;;;;;;;;;;;;;;;5020671;28;59517;-78
2024/01/16 16:09:18;;;;;;;;;;;;;;;;;;5021536;28;59651;-78
2024/01/16 16:11:49;;;;;;;;;;;;;;;;;;5021267;28;60329;-78
2024/01/16 16:14:14;;;;;;;;;;;;;;;;;;5014050;28;59693;-79
2024/01/16 16:16:39;;;;;;;;;;;;;;;;;;5024545;28;59403;-78
2024/01/16 16:19:04;;;;;;;;;;;;;;;;;;5018664;28;59921;-79
2024/01/16 16:21:29;;;;;;;;;;;;;;;;;;5019285;28;59407;-81
2024/01/16 16:23:55;;;;;;;;;;;;;;;;;;5021710;28;60439;-80
2024/01/16 16:26:20;;;;;;;;;;;;;;;;;;5020736;28;60086;-79
2024/01/16 16:28:45;;;;;;;;;;;;;;;;;;5022767;28;59204;-81
2024/01/16 16:31:10;;;;;;;;;;;;;;;;;;5020804;28;60738;-79